Flight Track Log - Related Links

Times and Time Zones

All times are in EDT time to prevent confusion due to time zone crossing. See the CLH840 flight status page for this flight to view local times or setup timezone preferences in your user account.


Time Position Orientation Groundspeed Altitude Reporting Facility
EDT Latitude Longitude Course Direction KTS MPH feet Rate Location/Type
Sat 11:59:00 AM 50.3439 8.5730 North  Level Estimated
Sat 12:00:00 PM 50.4497 8.5830 North  Level Estimated
Sat 12:01:00 PM 50.5556 8.5931 North  Level Estimated
Sat 12:02:00 PM 50.6614 8.6033 North  Level Estimated
Sat 12:03:00 PM 50.7672 8.6135 North  Level Estimated
Sat 12:04:00 PM 50.8731 8.6237 North  Level Estimated
Sat 12:05:00 PM 50.9789 8.6340 North  Level Estimated
Sat 12:06:00 PM 51.0847 8.6443 North  Level Estimated
Sat 12:07:00 PM 51.1905 8.6547 North  Level Estimated
Sat 12:08:00 PM 51.2963 8.6651 North  Level Estimated
Sat 12:09:00 PM 51.4022 8.6755 North  Level Estimated
Sat 12:10:00 PM 51.5080 8.6861 North  Level Estimated
Sat 12:11:00 PM 51.6138 8.6966 North  Level Estimated
Sat 12:12:00 PM 51.7196 8.7072 North  Level Estimated
Sat 12:13:00 PM 51.8254 8.7179 North  Level Estimated
Sat 12:14:00 PM 51.9313 8.7286 North  Level Estimated
Sat 12:15:00 PM 52.0371 8.7394 North  Level Estimated
Sat 12:16:00 PM 52.1429 8.7502 North  Level Estimated
Sat 12:17:00 PM 52.2487 8.7611 North  Level Estimated
Sat 12:18:00 PM 52.3545 8.7720 North  Level Estimated
Sat 12:19:00 PM 52.4603 8.7830 North  Level Estimated
Sat 12:20:00 PM 52.5661 8.7940 North  Level Estimated
Sat 12:21:00 PM 52.6720 8.8050 North  Level Estimated
Sat 12:22:00 PM 52.7778 8.8162 North  Level Estimated
Sat 12:23:00 PM 52.8836 8.8274 North  Level Estimated
Sat 12:24:00 PM 52.9894 8.8386 North  Level Estimated
Sat 12:25:00 PM 53.0952 8.8499 North  Level Estimated
Sat 12:26:00 PM 53.2010 8.8612 North  Level Estimated
Sat 12:27:00 PM 53.3068 8.8727 North  Level Estimated
Sat 12:28:00 PM 53.4126 8.8841 North  Level Estimated
Sat 12:29:00 PM 53.5184 8.8956 North  Level Estimated
Sat 12:30:00 PM 53.6242 8.9072 North  Level Estimated
Sat 12:31:00 PM 53.7484 8.9209 North  Level Estimated
Sat 12:32:00 PM 53.8726 8.9346 North  Level Estimated
Sat 12:33:00 PM 53.9968 8.9485 North  Level Estimated
Sat 12:34:00 PM 54.1210 8.9624 North  Level Estimated
Sat 12:35:00 PM 54.2452 8.9764 North  Level Estimated
Sat 12:36:00 PM 54.3694 8.9904 North  Level Estimated
Sat 12:37:00 PM 54.4935 9.0046 North  Level Estimated
Sat 12:38:00 PM 54.6177 9.0189 North  Level Estimated
Sat 12:39:00 PM 54.7419 9.0332 North  Level Estimated
Sat 12:40:00 PM 54.8661 9.0476 North  Level Estimated
Sat 12:41:00 PM 54.9903 9.0622 North  Level Estimated
Sat 12:42:00 PM 55.1145 9.0767 North  Level Estimated
Sat 12:43:00 PM 55.2386 9.0914 North  Level Estimated
Sat 12:44:00 PM 55.3628 9.1062 North  Level Estimated
Sat 12:45:00 PM 55.4870 9.1211 North  Level Estimated
Sat 12:46:00 PM 55.6112 9.1361 North  Level Estimated
Sat 12:47:00 PM 55.7353 9.1512 North  Level Estimated
Sat 12:48:00 PM 55.7403 9.1518 North  Level Estimated
Sat 12:49:00 PM 55.7403 9.1518 North  Level Estimated
Sat 12:50:00 PM 55.7403 9.1518 North  Level Estimated
Sat 12:51:00 PM 55.7403 9.1518 North  Level Estimated
Sat 12:52:00 PM 55.7403 9.1518 North  Level Estimated

Login

Don't have an account? Register now (free) for customized features, flight alerts, and more!